sensor_id;sensor_type;location;lat;lon;timestamp;P1;durP1;ratioP1;P2;durP2;ratioP2
25687;SDS011;17407;51.120;3.702;2023-05-03T01:06:04;13.18;;;4.65;;
25687;SDS011;17407;51.120;3.702;2023-05-03T01:09:42;10.52;;;5.03;;
25687;SDS011;17407;51.120;3.702;2023-05-03T01:33:36;8.52;;;5.35;;
25687;SDS011;17407;51.120;3.702;2023-05-03T11:04:54;19.70;;;10.88;;
25687;SDS011;17407;51.120;3.702;2023-05-03T11:08:18;17.98;;;11.57;;
25687;SDS011;17407;51.120;3.702;2023-05-03T11:11:39;18.35;;;11.23;;
25687;SDS011;17407;51.120;3.702;2023-05-03T11:15:01;15.60;;;10.98;;
25687;SDS011;17407;51.120;3.702;2023-05-03T11:18:25;23.08;;;12.18;;
25687;SDS011;17407;51.120;3.702;2023-05-03T11:21:48;20.02;;;11.20;;
25687;SDS011;17407;51.120;3.702;2023-05-03T11:25:11;17.25;;;11.57;;
25687;SDS011;17407;51.120;3.702;2023-05-03T11:28:37;16.48;;;11.00;;
25687;SDS011;17407;51.120;3.702;2023-05-03T11:32:00;15.80;;;11.15;;
25687;SDS011;17407;51.120;3.702;2023-05-03T11:35:23;15.15;;;10.18;;
25687;SDS011;17407;51.120;3.702;2023-05-03T11:38:44;20.10;;;11.32;;
25687;SDS011;17407;51.120;3.702;2023-05-03T11:42:02;15.35;;;10.90;;
25687;SDS011;17407;51.120;3.702;2023-05-03T11:45:22;15.75;;;10.75;;
25687;SDS011;17407;51.120;3.702;2023-05-03T11:48:45;15.65;;;10.30;;
25687;SDS011;17407;51.120;3.702;2023-05-03T11:52:02;19.02;;;10.70;;
25687;SDS011;17407;51.120;3.702;2023-05-03T11:55:21;15.00;;;10.48;;
25687;SDS011;17407;51.120;3.702;2023-05-03T11:58:50;15.68;;;10.65;;
25687;SDS011;17407;51.120;3.702;2023-05-03T12:02:11;18.13;;;12.10;;
25687;SDS011;17407;51.120;3.702;2023-05-03T12:05:34;19.52;;;10.80;;
25687;SDS011;17407;51.120;3.702;2023-05-03T12:08:57;17.77;;;9.55;;
25687;SDS011;17407;51.120;3.702;2023-05-03T12:12:20;16.75;;;10.38;;
25687;SDS011;17407;51.120;3.702;2023-05-03T12:15:44;13.68;;;10.00;;
25687;SDS011;17407;51.120;3.702;2023-05-03T12:19:07;15.68;;;9.15;;
25687;SDS011;17407;51.120;3.702;2023-05-03T12:22:41;14.98;;;10.13;;
25687;SDS011;17407;51.120;3.702;2023-05-03T12:26:03;32.15;;;10.45;;
25687;SDS011;17407;51.120;3.702;2023-05-03T12:29:27;20.25;;;10.05;;
25687;SDS011;17407;51.120;3.702;2023-05-03T12:32:50;14.52;;;9.43;;
25687;SDS011;17407;51.120;3.702;2023-05-03T12:36:08;13.55;;;9.57;;
25687;SDS011;17407;51.120;3.702;2023-05-03T12:39:32;12.68;;;9.55;;
25687;SDS011;17407;51.120;3.702;2023-05-03T12:42:50;14.88;;;9.82;;
25687;SDS011;17407;51.120;3.702;2023-05-03T12:46:14;17.08;;;9.93;;
25687;SDS011;17407;51.120;3.702;2023-05-03T12:49:37;16.05;;;9.90;;
25687;SDS011;17407;51.120;3.702;2023-05-03T12:52:55;15.93;;;9.52;;
25687;SDS011;17407;51.120;3.702;2023-05-03T12:56:18;16.92;;;9.95;;
25687;SDS011;17407;51.120;3.702;2023-05-03T12:59:36;19.27;;;9.88;;
25687;SDS011;17407;51.120;3.702;2023-05-03T13:02:59;12.55;;;9.85;;
25687;SDS011;17407;51.120;3.702;2023-05-03T13:06:22;14.07;;;9.23;;
25687;SDS011;17407;51.120;3.702;2023-05-03T13:09:45;13.05;;;9.32;;
25687;SDS011;17407;51.120;3.702;2023-05-03T13:13:08;11.82;;;9.20;;
25687;SDS011;17407;51.120;3.702;2023-05-03T13:16:26;13.32;;;9.25;;
25687;SDS011;17407;51.120;3.702;2023-05-03T13:19:49;18.00;;;9.43;;
25687;SDS011;17407;51.120;3.702;2023-05-03T13:23:08;13.68;;;9.02;;
25687;SDS011;17407;51.120;3.702;2023-05-03T13:26:31;19.80;;;9.95;;
25687;SDS011;17407;51.120;3.702;2023-05-03T13:29:54;12.73;;;9.55;;
25687;SDS011;17407;51.120;3.702;2023-05-03T13:33:18;14.68;;;9.20;;
25687;SDS011;17407;51.120;3.702;2023-05-03T13:36:37;12.98;;;9.43;;
25687;SDS011;17407;51.120;3.702;2023-05-03T13:40:00;12.27;;;9.13;;
25687;SDS011;17407;51.120;3.702;2023-05-03T13:43:23;18.20;;;9.20;;
25687;SDS011;17407;51.120;3.702;2023-05-03T13:50:28;12.18;;;9.85;;
25687;SDS011;17407;51.120;3.702;2023-05-03T15:49:24;12.85;;;8.38;;
25687;SDS011;17407;51.120;3.702;2023-05-03T15:52:55;14.18;;;8.25;;
25687;SDS011;17407;51.120;3.702;2023-05-03T15:56:18;14.32;;;8.88;;
25687;SDS011;17407;51.120;3.702;2023-05-03T15:59:36;15.02;;;10.55;;
25687;SDS011;17407;51.120;3.702;2023-05-03T16:02:59;16.65;;;8.55;;
25687;SDS011;17407;51.120;3.702;2023-05-03T16:06:22;14.60;;;8.85;;
25687;SDS011;17407;51.120;3.702;2023-05-03T16:09:46;11.90;;;8.25;;
25687;SDS011;17407;51.120;3.702;2023-05-03T16:13:09;11.77;;;7.88;;
25687;SDS011;17407;51.120;3.702;2023-05-03T16:16:32;12.05;;;8.23;;
25687;SDS011;17407;51.120;3.702;2023-05-03T16:19:55;12.63;;;8.25;;
25687;SDS011;17407;51.120;3.702;2023-05-03T16:23:18;14.90;;;8.05;;
25687;SDS011;17407;51.120;3.702;2023-05-03T16:25:44;18.38;;;8.82;;
25687;SDS011;17407;51.120;3.702;2023-05-03T16:28:10;14.60;;;7.63;;
25687;SDS011;17407;51.120;3.702;2023-05-03T16:30:35;12.73;;;8.23;;
25687;SDS011;17407;51.120;3.702;2023-05-03T16:33:01;15.80;;;8.18;;
25687;SDS011;17407;51.120;3.702;2023-05-03T16:35:27;11.55;;;8.45;;
25687;SDS011;17407;51.120;3.702;2023-05-03T16:37:53;12.57;;;9.02;;
25687;SDS011;17407;51.120;3.702;2023-05-03T16:40:20;13.60;;;8.90;;
25687;SDS011;17407;51.120;3.702;2023-05-03T16:42:47;17.17;;;8.60;;
25687;SDS011;17407;51.120;3.702;2023-05-03T16:45:13;12.55;;;8.52;;
25687;SDS011;17407;51.120;3.702;2023-05-03T16:47:40;17.70;;;8.60;;
25687;SDS011;17407;51.120;3.702;2023-05-03T16:50:07;19.38;;;9.18;;
25687;SDS011;17407;51.120;3.702;2023-05-03T16:52:40;14.05;;;9.32;;
25687;SDS011;17407;51.120;3.702;2023-05-03T16:55:07;12.52;;;8.05;;
25687;SDS011;17407;51.120;3.702;2023-05-03T16:57:34;15.93;;;9.20;;
25687;SDS011;17407;51.120;3.702;2023-05-03T17:00:04;13.75;;;9.25;;
25687;SDS011;17407;51.120;3.702;2023-05-03T17:02:35;15.23;;;9.13;;
25687;SDS011;17407;51.120;3.702;2023-05-03T17:05:01;15.32;;;8.80;;
25687;SDS011;17407;51.120;3.702;2023-05-03T17:07:31;13.38;;;9.27;;
25687;SDS011;17407;51.120;3.702;2023-05-03T17:09:58;10.38;;;8.80;;
25687;SDS011;17407;51.120;3.702;2023-05-03T17:12:24;17.63;;;9.15;;
25687;SDS011;17407;51.120;3.702;2023-05-03T17:14:49;19.20;;;9.73;;
25687;SDS011;17407;51.120;3.702;2023-05-03T17:17:15;14.73;;;9.60;;
25687;SDS011;17407;51.120;3.702;2023-05-03T17:19:41;17.75;;;10.32;;
25687;SDS011;17407;51.120;3.702;2023-05-03T17:22:06;20.80;;;10.05;;
25687;SDS011;17407;51.120;3.702;2023-05-03T17:24:32;15.75;;;9.65;;
25687;SDS011;17407;51.120;3.702;2023-05-03T17:26:58;17.00;;;9.88;;
25687;SDS011;17407;51.120;3.702;2023-05-03T17:29:25;14.55;;;9.60;;
25687;SDS011;17407;51.120;3.702;2023-05-03T17:31:51;15.15;;;9.80;;
25687;SDS011;17407;51.120;3.702;2023-05-03T17:34:18;16.88;;;10.45;;
25687;SDS011;17407;51.120;3.702;2023-05-03T17:36:44;20.17;;;10.30;;
25687;SDS011;17407;51.120;3.702;2023-05-03T17:39:10;13.10;;;9.25;;
25687;SDS011;17407;51.120;3.702;2023-05-03T17:41:35;16.48;;;9.75;;
25687;SDS011;17407;51.120;3.702;2023-05-03T17:44:02;23.48;;;11.20;;
25687;SDS011;17407;51.120;3.702;2023-05-03T17:46:27;20.83;;;10.85;;
25687;SDS011;17407;51.120;3.702;2023-05-03T17:48:53;15.23;;;10.18;;
25687;SDS011;17407;51.120;3.702;2023-05-03T17:51:19;16.13;;;9.55;;
25687;SDS011;17407;51.120;3.702;2023-05-03T17:53:45;13.52;;;9.73;;
25687;SDS011;17407;51.120;3.702;2023-05-03T17:56:20;13.98;;;9.95;;
25687;SDS011;17407;51.120;3.702;2023-05-03T17:58:46;15.13;;;8.95;;
25687;SDS011;17407;51.120;3.702;2023-05-03T18:01:12;24.77;;;9.38;;
25687;SDS011;17407;51.120;3.702;2023-05-03T18:03:39;15.35;;;9.30;;
25687;SDS011;17407;51.120;3.702;2023-05-03T18:06:09;19.15;;;9.30;;
25687;SDS011;17407;51.120;3.702;2023-05-03T18:08:35;22.85;;;9.07;;
25687;SDS011;17407;51.120;3.702;2023-05-03T18:11:01;13.85;;;9.70;;
25687;SDS011;17407;51.120;3.702;2023-05-03T18:13:27;11.90;;;8.50;;
25687;SDS011;17407;51.120;3.702;2023-05-03T18:15:52;19.15;;;10.23;;
25687;SDS011;17407;51.120;3.702;2023-05-03T18:18:20;16.77;;;9.60;;
25687;SDS011;17407;51.120;3.702;2023-05-03T18:20:46;13.32;;;8.77;;
25687;SDS011;17407;51.120;3.702;2023-05-03T18:23:24;18.13;;;8.55;;
25687;SDS011;17407;51.120;3.702;2023-05-03T18:25:50;14.93;;;8.55;;
25687;SDS011;17407;51.120;3.702;2023-05-03T18:28:17;18.58;;;8.93;;
25687;SDS011;17407;51.120;3.702;2023-05-03T18:30:44;20.80;;;8.90;;
25687;SDS011;17407;51.120;3.702;2023-05-03T18:33:11;15.45;;;9.48;;
25687;SDS011;17407;51.120;3.702;2023-05-03T18:35:36;22.23;;;9.32;;
25687;SDS011;17407;51.120;3.702;2023-05-03T18:38:03;15.95;;;9.68;;
25687;SDS011;17407;51.120;3.702;2023-05-03T18:40:28;17.00;;;11.68;;
25687;SDS011;17407;51.120;3.702;2023-05-03T18:42:54;26.42;;;14.18;;
25687;SDS011;17407;51.120;3.702;2023-05-03T18:45:20;20.55;;;12.63;;
25687;SDS011;17407;51.120;3.702;2023-05-03T18:47:46;16.48;;;11.88;;
25687;SDS011;17407;51.120;3.702;2023-05-03T18:50:12;24.13;;;12.57;;
25687;SDS011;17407;51.120;3.702;2023-05-03T18:52:38;14.77;;;9.75;;
25687;SDS011;17407;51.120;3.702;2023-05-03T18:55:06;15.48;;;9.68;;
25687;SDS011;17407;51.120;3.702;2023-05-03T18:57:32;14.68;;;9.30;;
25687;SDS011;17407;51.120;3.702;2023-05-03T18:59:58;16.48;;;8.80;;
25687;SDS011;17407;51.120;3.702;2023-05-03T19:02:24;13.38;;;9.05;;
25687;SDS011;17407;51.120;3.702;2023-05-03T19:04:52;14.38;;;9.93;;
25687;SDS011;17407;51.120;3.702;2023-05-03T19:07:18;19.67;;;8.77;;
25687;SDS011;17407;51.120;3.702;2023-05-03T19:09:43;16.40;;;8.88;;
25687;SDS011;17407;51.120;3.702;2023-05-03T19:12:09;15.80;;;9.63;;
25687;SDS011;17407;51.120;3.702;2023-05-03T19:14:38;15.35;;;9.32;;
25687;SDS011;17407;51.120;3.702;2023-05-03T19:17:06;15.45;;;8.68;;
25687;SDS011;17407;51.120;3.702;2023-05-03T19:19:32;12.82;;;8.55;;
25687;SDS011;17407;51.120;3.702;2023-05-03T19:21:58;15.60;;;8.50;;
25687;SDS011;17407;51.120;3.702;2023-05-03T19:24:23;12.13;;;8.27;;
25687;SDS011;17407;51.120;3.702;2023-05-03T19:26:49;18.70;;;8.98;;
25687;SDS011;17407;51.120;3.702;2023-05-03T19:29:15;13.85;;;8.50;;
25687;SDS011;17407;51.120;3.702;2023-05-03T19:31:41;19.98;;;9.85;;
25687;SDS011;17407;51.120;3.702;2023-05-03T19:34:07;16.52;;;9.18;;
25687;SDS011;17407;51.120;3.702;2023-05-03T19:36:35;15.40;;;9.57;;
25687;SDS011;17407;51.120;3.702;2023-05-03T19:39:01;14.15;;;9.35;;
25687;SDS011;17407;51.120;3.702;2023-05-03T19:41:27;14.43;;;9.75;;
25687;SDS011;17407;51.120;3.702;2023-05-03T19:43:53;12.93;;;9.07;;
25687;SDS011;17407;51.120;3.702;2023-05-03T19:46:19;20.15;;;9.20;;
25687;SDS011;17407;51.120;3.702;2023-05-03T19:48:46;17.75;;;10.00;;
25687;SDS011;17407;51.120;3.702;2023-05-03T19:51:15;14.13;;;9.20;;
25687;SDS011;17407;51.120;3.702;2023-05-03T19:53:41;18.60;;;10.02;;
25687;SDS011;17407;51.120;3.702;2023-05-03T19:56:07;17.08;;;9.10;;
25687;SDS011;17407;51.120;3.702;2023-05-03T19:58:34;17.65;;;9.60;;
25687;SDS011;17407;51.120;3.702;2023-05-03T20:00:59;15.90;;;9.25;;
25687;SDS011;17407;51.120;3.702;2023-05-03T20:03:26;14.50;;;9.43;;
25687;SDS011;17407;51.120;3.702;2023-05-03T20:05:52;15.98;;;9.73;;
25687;SDS011;17407;51.120;3.702;2023-05-03T20:08:17;12.48;;;9.13;;
25687;SDS011;17407;51.120;3.702;2023-05-03T20:10:43;14.05;;;9.20;;
25687;SDS011;17407;51.120;3.702;2023-05-03T20:13:09;16.00;;;10.10;;
25687;SDS011;17407;51.120;3.702;2023-05-03T20:15:35;14.20;;;8.63;;
25687;SDS011;17407;51.120;3.702;2023-05-03T20:18:01;14.55;;;9.40;;
25687;SDS011;17407;51.120;3.702;2023-05-03T20:20:27;14.38;;;9.07;;
25687;SDS011;17407;51.120;3.702;2023-05-03T20:22:53;11.45;;;9.18;;
25687;SDS011;17407;51.120;3.702;2023-05-03T20:25:19;14.77;;;9.00;;
25687;SDS011;17407;51.120;3.702;2023-05-03T20:27:45;17.10;;;9.75;;
25687;SDS011;17407;51.120;3.702;2023-05-03T20:30:11;16.27;;;9.20;;
25687;SDS011;17407;51.120;3.702;2023-05-03T20:32:37;21.83;;;9.70;;
25687;SDS011;17407;51.120;3.702;2023-05-03T20:35:07;17.13;;;9.43;;
25687;SDS011;17407;51.120;3.702;2023-05-03T20:37:34;20.25;;;9.77;;
25687;SDS011;17407;51.120;3.702;2023-05-03T20:40:00;15.93;;;9.38;;
25687;SDS011;17407;51.120;3.702;2023-05-03T20:42:26;17.08;;;8.75;;
25687;SDS011;17407;51.120;3.702;2023-05-03T20:44:52;15.45;;;9.32;;
25687;SDS011;17407;51.120;3.702;2023-05-03T20:47:18;14.90;;;9.50;;
25687;SDS011;17407;51.120;3.702;2023-05-03T20:49:44;18.70;;;9.32;;
25687;SDS011;17407;51.120;3.702;2023-05-03T20:52:10;25.48;;;9.65;;
25687;SDS011;17407;51.120;3.702;2023-05-03T20:54:36;15.65;;;9.10;;
25687;SDS011;17407;51.120;3.702;2023-05-03T20:57:05;18.10;;;9.40;;
25687;SDS011;17407;51.120;3.702;2023-05-03T20:59:32;19.08;;;9.52;;
25687;SDS011;17407;51.120;3.702;2023-05-03T21:01:59;14.05;;;8.93;;
25687;SDS011;17407;51.120;3.702;2023-05-03T21:04:25;17.88;;;9.75;;
25687;SDS011;17407;51.120;3.702;2023-05-03T21:06:51;17.88;;;8.90;;
25687;SDS011;17407;51.120;3.702;2023-05-03T21:09:16;22.40;;;10.10;;
25687;SDS011;17407;51.120;3.702;2023-05-03T21:11:42;15.85;;;9.35;;
25687;SDS011;17407;51.120;3.702;2023-05-03T21:14:09;17.08;;;9.07;;
25687;SDS011;17407;51.120;3.702;2023-05-03T21:16:35;14.90;;;9.35;;
25687;SDS011;17407;51.120;3.702;2023-05-03T21:19:01;13.52;;;9.27;;
25687;SDS011;17407;51.120;3.702;2023-05-03T21:21:27;16.88;;;9.68;;
25687;SDS011;17407;51.120;3.702;2023-05-03T21:23:54;17.58;;;9.48;;
25687;SDS011;17407;51.120;3.702;2023-05-03T21:26:20;17.65;;;9.88;;
25687;SDS011;17407;51.120;3.702;2023-05-03T21:28:46;17.90;;;9.02;;
25687;SDS011;17407;51.120;3.702;2023-05-03T21:31:11;16.13;;;9.25;;
25687;SDS011;17407;51.120;3.702;2023-05-03T21:33:37;15.90;;;10.02;;
25687;SDS011;17407;51.120;3.702;2023-05-03T21:36:03;13.15;;;8.75;;
25687;SDS011;17407;51.120;3.702;2023-05-03T21:38:29;14.63;;;9.02;;
25687;SDS011;17407;51.120;3.702;2023-05-03T21:41:01;16.38;;;8.32;;
25687;SDS011;17407;51.120;3.702;2023-05-03T21:45:54;15.80;;;9.88;;
25687;SDS011;17407;51.120;3.702;2023-05-03T21:48:20;12.73;;;8.80;;
25687;SDS011;17407;51.120;3.702;2023-05-03T21:50:47;17.67;;;9.48;;
25687;SDS011;17407;51.120;3.702;2023-05-03T21:53:13;12.75;;;9.15;;
25687;SDS011;17407;51.120;3.702;2023-05-03T21:55:39;18.73;;;8.88;;
25687;SDS011;17407;51.120;3.702;2023-05-03T21:58:05;13.93;;;9.13;;
25687;SDS011;17407;51.120;3.702;2023-05-03T22:00:30;15.38;;;9.45;;
25687;SDS011;17407;51.120;3.702;2023-05-03T22:02:56;15.77;;;8.73;;
25687;SDS011;17407;51.120;3.702;2023-05-03T22:05:22;16.42;;;9.13;;
25687;SDS011;17407;51.120;3.702;2023-05-03T22:07:48;18.83;;;9.05;;
25687;SDS011;17407;51.120;3.702;2023-05-03T22:10:14;19.23;;;8.40;;
25687;SDS011;17407;51.120;3.702;2023-05-03T22:12:40;17.08;;;8.55;;
25687;SDS011;17407;51.120;3.702;2023-05-03T22:15:06;14.35;;;8.25;;
25687;SDS011;17407;51.120;3.702;2023-05-03T22:17:33;14.15;;;9.05;;
25687;SDS011;17407;51.120;3.702;2023-05-03T22:19:58;13.85;;;8.60;;
25687;SDS011;17407;51.120;3.702;2023-05-03T22:22:24;17.25;;;9.50;;
25687;SDS011;17407;51.120;3.702;2023-05-03T22:24:50;14.93;;;8.57;;
25687;SDS011;17407;51.120;3.702;2023-05-03T22:27:16;14.13;;;9.25;;
25687;SDS011;17407;51.120;3.702;2023-05-03T22:29:41;18.88;;;9.18;;
25687;SDS011;17407;51.120;3.702;2023-05-03T22:32:07;18.02;;;9.40;;
25687;SDS011;17407;51.120;3.702;2023-05-03T22:34:33;16.52;;;9.05;;
25687;SDS011;17407;51.120;3.702;2023-05-03T22:36:58;14.38;;;8.77;;
25687;SDS011;17407;51.120;3.702;2023-05-03T22:39:24;17.30;;;8.98;;
25687;SDS011;17407;51.120;3.702;2023-05-03T22:41:50;16.05;;;8.35;;
25687;SDS011;17407;51.120;3.702;2023-05-03T22:44:16;13.60;;;9.05;;
25687;SDS011;17407;51.120;3.702;2023-05-03T22:46:42;10.52;;;7.75;;
25687;SDS011;17407;51.120;3.702;2023-05-03T22:49:08;13.43;;;9.10;;
25687;SDS011;17407;51.120;3.702;2023-05-03T22:51:33;15.25;;;8.70;;
25687;SDS011;17407;51.120;3.702;2023-05-03T22:53:59;12.73;;;8.02;;
25687;SDS011;17407;51.120;3.702;2023-05-03T22:56:25;14.35;;;8.93;;
25687;SDS011;17407;51.120;3.702;2023-05-03T22:58:51;13.27;;;8.73;;
25687;SDS011;17407;51.120;3.702;2023-05-03T23:01:17;15.00;;;8.55;;
25687;SDS011;17407;51.120;3.702;2023-05-03T23:03:43;14.65;;;8.80;;
25687;SDS011;17407;51.120;3.702;2023-05-03T23:06:08;15.05;;;9.57;;
25687;SDS011;17407;51.120;3.702;2023-05-03T23:08:34;14.65;;;9.38;;
25687;SDS011;17407;51.120;3.702;2023-05-03T23:11:00;15.50;;;9.20;;
25687;SDS011;17407;51.120;3.702;2023-05-03T23:13:26;12.38;;;9.02;;
25687;SDS011;17407;51.120;3.702;2023-05-03T23:15:52;19.17;;;8.88;;
25687;SDS011;17407;51.120;3.702;2023-05-03T23:18:18;14.35;;;9.13;;
25687;SDS011;17407;51.120;3.702;2023-05-03T23:20:46;13.02;;;8.93;;
25687;SDS011;17407;51.120;3.702;2023-05-03T23:23:15;15.80;;;9.23;;
